createdAt,value
2022-12-05T00:01:25.780Z,1.67
2022-12-05T00:03:56.131Z,1.80
2022-12-05T00:06:23.786Z,1.81
2022-12-05T00:08:51.181Z,1.82
2022-12-05T00:11:24.926Z,1.73
2022-12-05T00:13:53.393Z,1.73
2022-12-05T00:16:23.043Z,1.57
2022-12-05T00:18:49.425Z,1.60
2022-12-05T00:21:27.357Z,1.67
2022-12-05T00:23:55.587Z,1.62
2022-12-05T00:26:22.273Z,1.66
2022-12-05T00:28:48.759Z,1.66
2022-12-05T00:31:19.991Z,1.78
2022-12-05T00:33:46.886Z,1.88
2022-12-05T00:36:19.171Z,1.69
2022-12-05T00:38:45.566Z,1.71
2022-12-05T00:41:14.119Z,1.64
2022-12-05T00:43:41.060Z,1.77
2022-12-05T00:46:10.125Z,1.67
2022-12-05T00:48:37.063Z,1.71
2022-12-05T00:51:07.440Z,1.86
2022-12-05T00:53:34.150Z,1.93
2022-12-05T00:56:05.698Z,1.83
2022-12-05T00:58:32.799Z,1.67
2022-12-05T01:01:25.937Z,1.58
2022-12-05T01:03:54.339Z,1.56
2022-12-05T01:06:21.404Z,1.64
2022-12-05T01:08:47.973Z,1.57
2022-12-05T01:11:16.968Z,1.49
2022-12-05T01:13:43.739Z,1.48
2022-12-05T01:16:21.889Z,1.44
2022-12-05T01:18:48.802Z,1.51
2022-12-05T01:21:15.164Z,1.45
2022-12-05T01:23:41.516Z,1.47
2022-12-05T01:26:10.229Z,1.69
2022-12-05T01:28:36.874Z,1.60
2022-12-05T01:31:08.982Z,1.52
2022-12-05T01:33:35.657Z,1.59
2022-12-05T01:36:03.181Z,1.57
2022-12-05T01:38:29.663Z,1.58
2022-12-05T01:41:03.484Z,1.56
2022-12-05T01:43:30.077Z,1.60
2022-12-05T01:45:56.900Z,1.47
2022-12-05T01:48:27.744Z,1.49
2022-12-05T01:50:54.294Z,1.42
2022-12-05T01:53:21.184Z,1.42
2022-12-05T01:55:48.441Z,1.33
2022-12-05T01:58:15.163Z,1.39
2022-12-05T02:00:41.580Z,1.54
2022-12-05T02:03:09.892Z,1.55
2022-12-05T02:05:37.147Z,1.48
2022-12-05T02:08:07.685Z,1.54
2022-12-05T02:10:39.514Z,1.63
2022-12-05T02:13:32.312Z,1.50
2022-12-05T02:16:24.736Z,1.46
2022-12-05T02:19:24.500Z,1.37
2022-12-05T02:22:18.239Z,1.47
2022-12-05T02:24:54.437Z,1.58
2022-12-05T02:27:45.598Z,1.50
2022-12-05T02:30:20.380Z,1.43
2022-12-05T02:32:58.783Z,1.42
2022-12-05T02:35:46.713Z,1.40
2022-12-05T02:38:18.303Z,1.51
2022-12-05T02:41:04.631Z,1.67
2022-12-05T02:43:44.915Z,1.68
2022-12-05T02:46:13.790Z,1.60
2022-12-05T02:48:41.445Z,1.60
2022-12-05T02:51:09.129Z,1.50
2022-12-05T02:53:36.448Z,1.54
2022-12-05T02:56:04.024Z,1.68
2022-12-05T02:58:34.564Z,1.73
2022-12-05T03:01:01.144Z,1.67
2022-12-05T03:03:28.160Z,1.68
2022-12-05T03:06:09.560Z,1.66
2022-12-05T03:08:41.250Z,1.68
2022-12-05T03:11:07.773Z,1.67
2022-12-05T03:13:46.344Z,1.63
2022-12-05T03:16:21.518Z,1.67
2022-12-05T03:18:51.778Z,1.66
2022-12-05T03:21:30.273Z,1.58
2022-12-05T03:24:01.269Z,1.64
2022-12-05T03:26:51.565Z,1.65
2022-12-05T03:29:37.071Z,1.61
2022-12-05T03:32:06.393Z,1.74
2022-12-05T03:34:37.940Z,1.56
2022-12-05T03:37:08.397Z,1.48
2022-12-05T03:39:36.259Z,1.67
2022-12-05T03:42:20.278Z,1.64
2022-12-05T03:44:57.632Z,1.72
2022-12-05T03:47:29.625Z,1.71
2022-12-05T03:49:59.760Z,1.85
2022-12-05T03:53:18.010Z,1.85
2022-12-05T03:55:35.922Z,1.84
2022-12-05T03:58:07.356Z,1.91
2022-12-05T04:00:36.242Z,1.73
2022-12-05T04:03:14.305Z,1.78
2022-12-05T04:05:53.927Z,1.58
2022-12-05T04:08:24.949Z,1.70
2022-12-05T04:10:53.728Z,1.84
2022-12-05T04:13:23.892Z,1.96
2022-12-05T04:16:16.403Z,1.89
2022-12-05T04:18:44.679Z,1.76
2022-12-05T04:21:29.435Z,1.88
2022-12-05T04:24:14.547Z,1.78
2022-12-05T04:26:45.768Z,1.92
2022-12-05T04:29:18.477Z,1.78
2022-12-05T04:31:48.252Z,1.65
2022-12-05T04:34:15.656Z,1.71
2022-12-05T04:36:47.635Z,1.72
2022-12-05T04:39:19.705Z,1.74
2022-12-05T04:41:50.613Z,1.88
2022-12-05T04:44:19.090Z,1.80
2022-12-05T04:46:47.144Z,1.70
2022-12-05T04:49:17.426Z,1.71
2022-12-05T04:51:45.464Z,1.73
2022-12-05T04:54:18.105Z,1.85
2022-12-05T04:56:46.042Z,1.92
2022-12-05T04:59:12.402Z,1.73
2022-12-05T05:01:55.547Z,1.78
2022-12-05T05:04:26.409Z,1.72
2022-12-05T05:06:52.912Z,1.65
2022-12-05T05:09:19.281Z,1.63
2022-12-05T05:11:45.713Z,1.77
2022-12-05T05:14:12.091Z,1.77
2022-12-05T05:16:40.908Z,1.62
2022-12-05T05:19:08.415Z,1.63
2022-12-05T05:21:37.723Z,1.63
2022-12-05T05:24:04.945Z,1.63
2022-12-05T05:26:34.009Z,1.54
2022-12-05T05:29:00.518Z,1.44
2022-12-05T05:31:27.019Z,1.56
2022-12-05T05:33:55.314Z,1.52
2022-12-05T05:36:23.249Z,1.36
2022-12-05T05:38:52.379Z,1.30
2022-12-05T05:41:24.669Z,1.23
2022-12-05T05:43:51.331Z,1.32
2022-12-05T05:46:20.122Z,1.31
2022-12-05T05:48:46.821Z,1.42
2022-12-05T05:51:15.736Z,1.40
2022-12-05T05:53:42.552Z,1.46
2022-12-05T05:56:14.004Z,1.44
2022-12-05T05:58:42.553Z,1.60
2022-12-05T06:01:11.274Z,1.59
2022-12-05T06:03:38.631Z,1.50
2022-12-05T06:06:07.312Z,1.42
2022-12-05T06:08:35.108Z,1.47
2022-12-05T06:11:09.639Z,1.58
2022-12-05T06:13:36.371Z,1.49
2022-12-05T06:16:05.607Z,1.33
2022-12-05T06:18:32.043Z,1.17
2022-12-05T06:20:58.423Z,1.11
2022-12-05T06:23:25.647Z,1.21
2022-12-05T06:25:53.643Z,1.07
2022-12-05T06:28:21.540Z,1.25
2022-12-05T06:30:47.927Z,1.34
2022-12-05T06:33:14.635Z,1.29
2022-12-05T06:35:41.638Z,1.02
2022-12-05T06:38:08.001Z,1.18
2022-12-05T06:40:34.560Z,1.22
2022-12-05T06:43:01.088Z,0.97
2022-12-05T06:45:27.485Z,0.83
2022-12-05T06:47:54.066Z,0.65
2022-12-05T06:50:20.406Z,0.65
2022-12-05T06:52:46.775Z,0.59
2022-12-05T06:55:13.139Z,0.71
2022-12-05T06:57:39.562Z,0.78
2022-12-05T07:00:24.943Z,0.75
2022-12-05T07:02:52.103Z,0.89
2022-12-05T07:05:18.595Z,0.82
2022-12-05T07:07:45.454Z,0.73
2022-12-05T07:10:12.119Z,0.76
2022-12-05T07:12:38.492Z,0.83
2022-12-05T07:15:05.172Z,0.84
2022-12-05T07:17:36.272Z,0.92
2022-12-05T07:20:03.088Z,0.98
2022-12-05T07:22:29.457Z,0.91
2022-12-05T07:24:55.887Z,0.98
2022-12-05T07:27:27.274Z,1.05
2022-12-05T07:29:54.553Z,1.01
2022-12-05T07:32:21.044Z,1.05
2022-12-05T07:34:52.126Z,1.13
2022-12-05T07:37:21.253Z,1.10
2022-12-05T07:39:47.792Z,0.95
2022-12-05T07:42:14.158Z,1.12
2022-12-05T07:44:40.509Z,1.13
2022-12-05T07:47:06.853Z,1.12
2022-12-05T07:49:33.247Z,1.01
2022-12-05T07:51:59.586Z,0.98
2022-12-05T07:54:25.948Z,1.00
2022-12-05T07:56:52.293Z,0.97
2022-12-05T07:59:18.831Z,1.07
2022-12-05T08:01:45.334Z,1.07
2022-12-05T08:04:15.543Z,1.10
2022-12-05T08:06:42.271Z,1.14
2022-12-05T08:09:08.667Z,1.13
2022-12-05T08:11:36.017Z,1.09
2022-12-05T08:14:04.363Z,1.08
2022-12-05T08:16:32.074Z,1.13
2022-12-05T08:19:01.119Z,1.21
2022-12-05T08:21:28.057Z,1.21
2022-12-05T08:23:54.803Z,1.24
2022-12-05T08:26:27.303Z,1.27
2022-12-05T08:28:59.050Z,1.15
2022-12-05T08:31:28.801Z,0.95
2022-12-05T08:33:58.996Z,1.05
2022-12-05T08:36:26.965Z,1.08
2022-12-05T08:38:58.219Z,1.14
2022-12-05T08:41:28.450Z,1.33
2022-12-05T08:43:55.987Z,1.47
2022-12-05T08:46:22.519Z,1.55
2022-12-05T08:48:49.019Z,1.56
2022-12-05T08:51:15.422Z,1.59
2022-12-05T08:53:44.665Z,1.44
2022-12-05T08:56:11.715Z,1.41
2022-12-05T08:58:38.476Z,1.47
2022-12-05T09:01:16.884Z,1.32
2022-12-05T09:03:47.780Z,1.47
2022-12-05T09:06:20.686Z,1.49
2022-12-05T09:08:47.714Z,1.41
2022-12-05T09:11:16.732Z,1.42
2022-12-05T09:13:43.653Z,1.60
2022-12-05T09:16:12.776Z,1.58
2022-12-05T09:18:39.283Z,1.56
2022-12-05T09:21:11.244Z,1.56
2022-12-05T09:23:37.993Z,1.74
2022-12-05T09:26:06.046Z,1.78
2022-12-05T09:28:33.725Z,1.77
2022-12-05T09:31:05.757Z,1.85
2022-12-05T09:33:34.100Z,1.80
2022-12-05T09:36:15.724Z,1.75
2022-12-05T09:38:42.716Z,1.71
2022-12-05T09:41:15.148Z,1.61
2022-12-05T09:44:03.097Z,1.49
2022-12-05T09:46:37.981Z,1.55
2022-12-05T09:49:05.442Z,1.63
2022-12-05T09:51:32.409Z,1.73
2022-12-05T09:53:58.817Z,1.70
2022-12-05T09:56:30.633Z,1.64
2022-12-05T09:58:58.423Z,1.54
2022-12-05T10:01:42.412Z,1.41
2022-12-05T10:04:20.888Z,1.46
2022-12-05T10:06:50.404Z,1.44
2022-12-05T10:09:46.028Z,1.55
2022-12-05T10:12:36.122Z,1.59
2022-12-05T10:15:08.583Z,1.41
2022-12-05T10:17:37.193Z,1.34
2022-12-05T10:20:13.940Z,1.69
2022-12-05T10:23:28.200Z,1.88
2022-12-05T10:26:03.683Z,1.87
2022-12-05T10:28:50.298Z,1.85
2022-12-05T10:31:19.258Z,1.66
2022-12-05T10:33:53.075Z,1.69
2022-12-05T10:36:19.471Z,1.54
2022-12-05T10:38:46.180Z,1.65
2022-12-05T10:41:13.947Z,1.74
2022-12-05T10:43:44.201Z,1.67
2022-12-05T10:46:16.841Z,1.65
2022-12-05T10:48:43.848Z,1.57
2022-12-05T10:51:15.113Z,1.52
2022-12-05T10:53:51.294Z,1.51
2022-12-05T10:56:47.067Z,1.51
2022-12-05T10:59:16.312Z,1.47
2022-12-05T11:02:05.484Z,1.56
2022-12-05T11:04:42.335Z,1.58
2022-12-05T11:07:31.918Z,1.41
2022-12-05T11:10:05.724Z,1.43
2022-12-05T11:12:39.479Z,1.42
2022-12-05T11:15:19.440Z,1.43
2022-12-05T11:17:46.394Z,1.46
2022-12-05T11:20:15.673Z,1.35
2022-12-05T11:22:45.733Z,1.36
2022-12-05T11:25:24.572Z,1.42
2022-12-05T11:27:51.187Z,1.54
2022-12-05T11:30:23.165Z,1.53
2022-12-05T11:32:50.111Z,1.51
2022-12-05T11:35:16.394Z,1.44
2022-12-05T11:37:58.369Z,1.44
2022-12-05T11:40:39.805Z,1.38
2022-12-05T11:43:15.164Z,1.35
2022-12-05T11:46:04.181Z,1.39
2022-12-05T11:48:49.170Z,1.30
2022-12-05T11:51:29.074Z,1.23
2022-12-05T11:55:02.908Z,1.17
2022-12-05T11:57:51.977Z,1.24
2022-12-05T12:00:21.721Z,1.29
2022-12-05T12:03:18.689Z,1.27
2022-12-05T12:06:00.072Z,1.27
2022-12-05T12:08:29.024Z,1.18
2022-12-05T12:11:14.266Z,1.16
2022-12-05T12:14:04.536Z,1.13
2022-12-05T12:16:58.467Z,1.23
2022-12-05T12:19:30.470Z,1.23
2022-12-05T12:22:11.306Z,0.82
2022-12-05T12:24:52.801Z,0.82
2022-12-05T12:27:36.665Z,0.92
2022-12-05T12:30:16.732Z,0.95
2022-12-05T12:33:03.556Z,0.94
2022-12-05T12:35:53.366Z,1.00
2022-12-05T12:38:35.524Z,1.10
2022-12-05T12:41:09.423Z,1.26
2022-12-05T12:44:16.156Z,1.08
2022-12-05T12:46:53.060Z,1.01
2022-12-05T12:49:34.631Z,1.21
2022-12-05T12:52:11.507Z,1.10
2022-12-05T12:55:04.454Z,0.93
2022-12-05T12:57:58.784Z,0.89
2022-12-05T13:00:49.870Z,0.87
2022-12-05T13:03:46.090Z,0.98
2022-12-05T13:06:33.965Z,0.83
2022-12-05T13:09:07.818Z,0.84
2022-12-05T13:11:37.550Z,0.76
2022-12-05T13:14:04.842Z,0.64
2022-12-05T13:16:34.738Z,0.96
2022-12-05T13:19:02.553Z,1.16
2022-12-05T13:21:29.711Z,1.07
2022-12-05T13:24:03.125Z,1.12
2022-12-05T13:26:31.302Z,1.11
2022-12-05T13:28:59.738Z,1.10
2022-12-05T13:31:40.301Z,1.19
2022-12-05T13:34:07.068Z,1.25
2022-12-05T13:36:59.125Z,1.16
2022-12-05T13:39:44.018Z,1.17
2022-12-05T13:42:22.676Z,1.06
2022-12-05T13:45:04.672Z,1.14
2022-12-05T13:48:03.275Z,1.08
2022-12-05T13:50:49.983Z,1.14
2022-12-05T13:53:22.516Z,1.30
2022-12-05T13:56:15.182Z,1.32
2022-12-05T13:58:49.568Z,1.29
2022-12-05T14:01:25.073Z,1.29
2022-12-05T14:03:51.403Z,1.33
2022-12-05T14:06:38.733Z,1.32
2022-12-05T14:09:05.097Z,1.40
2022-12-05T14:11:31.604Z,1.47
2022-12-05T14:14:03.916Z,1.34
2022-12-05T14:16:31.051Z,1.32
2022-12-05T14:19:11.068Z,1.30
2022-12-05T14:21:43.087Z,1.28
2022-12-05T14:24:32.367Z,1.24
2022-12-05T14:27:17.826Z,1.27
2022-12-05T14:30:05.057Z,1.31
2022-12-05T14:32:34.160Z,1.21
2022-12-05T14:35:00.681Z,1.26
2022-12-05T14:37:29.970Z,1.22
2022-12-05T14:40:01.153Z,1.15
2022-12-05T14:42:38.811Z,1.27
2022-12-05T14:45:23.365Z,1.20
2022-12-05T14:47:55.827Z,1.06
2022-12-05T14:50:40.887Z,1.14
2022-12-05T14:53:39.297Z,1.00
2022-12-05T14:56:25.845Z,1.00
2022-12-05T14:59:01.372Z,0.93
2022-12-05T15:01:31.620Z,0.96
2022-12-05T15:04:20.740Z,1.08
2022-12-05T15:06:52.553Z,1.01
2022-12-05T15:09:37.938Z,0.89
2022-12-05T15:12:09.757Z,0.96
2022-12-05T15:14:44.534Z,0.86
2022-12-05T15:17:14.707Z,0.84
2022-12-05T15:20:03.655Z,0.79
2022-12-05T15:22:33.774Z,0.94
2022-12-05T15:25:15.022Z,0.87
2022-12-05T15:27:41.488Z,0.82
2022-12-05T15:30:16.427Z,1.00
2022-12-05T15:32:42.852Z,0.93
2022-12-05T15:35:14.025Z,0.88
2022-12-05T15:38:01.627Z,0.86
2022-12-05T15:40:37.282Z,0.75
2022-12-05T15:43:26.846Z,0.78
2022-12-05T15:46:07.184Z,0.83
2022-12-05T15:48:34.222Z,0.79
2022-12-05T15:51:00.877Z,0.85
2022-12-05T15:53:34.373Z,0.83
2022-12-05T15:56:15.894Z,0.77
2022-12-05T15:58:45.900Z,0.85
2022-12-05T16:01:19.021Z,0.72
2022-12-05T16:03:54.602Z,0.82
2022-12-05T16:06:28.329Z,0.83
2022-12-05T16:08:56.050Z,0.78
2022-12-05T16:11:22.647Z,0.77
2022-12-05T16:13:55.614Z,0.82
2022-12-05T16:16:23.985Z,0.80
2022-12-05T16:18:54.401Z,0.80
2022-12-05T16:21:38.856Z,0.78
2022-12-05T16:24:11.593Z,0.79
2022-12-05T16:26:39.581Z,0.76
2022-12-05T16:29:06.010Z,0.81
2022-12-05T16:31:33.760Z,0.79
2022-12-05T16:34:05.627Z,0.75
2022-12-05T16:36:32.732Z,0.77
2022-12-05T16:39:07.135Z,0.78
2022-12-05T16:41:38.614Z,0.88
2022-12-05T16:44:16.205Z,0.73
2022-12-05T16:46:45.785Z,0.71
2022-12-05T16:49:22.642Z,0.72
2022-12-05T16:52:07.322Z,0.62
2022-12-05T16:54:33.704Z,0.58
2022-12-05T16:57:01.088Z,0.58
2022-12-05T16:59:35.664Z,0.58
2022-12-05T17:02:03.201Z,0.59
2022-12-05T17:04:29.739Z,0.55
2022-12-05T17:06:56.159Z,0.65
2022-12-05T17:09:22.528Z,0.61
2022-12-05T17:11:51.031Z,0.57
2022-12-05T17:14:18.087Z,0.65
2022-12-05T17:16:44.967Z,0.80
2022-12-05T17:19:11.883Z,0.80
2022-12-05T17:21:40.024Z,0.78
2022-12-05T17:24:06.697Z,0.61
2022-12-05T17:26:33.221Z,0.54
2022-12-05T17:28:59.587Z,0.59
2022-12-05T17:31:26.096Z,0.65
2022-12-05T17:33:53.959Z,0.73
2022-12-05T17:36:21.090Z,0.83
2022-12-05T17:38:47.624Z,0.88
2022-12-05T17:41:19.233Z,0.94
2022-12-05T17:43:46.433Z,0.87
2022-12-05T17:46:18.834Z,0.80
2022-12-05T17:48:46.790Z,0.80
2022-12-05T17:51:14.559Z,0.78
2022-12-05T17:53:42.081Z,0.86
2022-12-05T17:56:08.901Z,0.92
2022-12-05T17:58:35.325Z,0.89
2022-12-05T18:01:02.357Z,0.91
2022-12-05T18:03:28.951Z,0.94
2022-12-05T18:05:55.390Z,0.95
2022-12-05T18:08:22.031Z,0.91
2022-12-05T18:10:49.834Z,0.96
2022-12-05T18:13:16.449Z,0.81
2022-12-05T18:15:43.565Z,0.97
2022-12-05T18:18:15.179Z,0.94
2022-12-05T18:20:41.542Z,1.01
2022-12-05T18:23:07.948Z,0.95
2022-12-05T18:25:34.325Z,0.99
2022-12-05T18:28:00.767Z,0.97
2022-12-05T18:30:27.132Z,0.91
2022-12-05T18:32:53.600Z,0.89
2022-12-05T18:35:39.836Z,0.92
2022-12-05T18:38:12.396Z,0.79
2022-12-05T18:40:38.977Z,0.92
2022-12-05T18:43:05.527Z,0.96
2022-12-05T18:45:31.976Z,0.99
2022-12-05T18:48:09.773Z,0.98
2022-12-05T18:50:42.602Z,0.96
2022-12-05T18:53:08.976Z,0.90
2022-12-05T18:56:04.777Z,0.95
2022-12-05T18:58:21.678Z,0.93
2022-12-05T19:00:48.063Z,0.90
2022-12-05T19:03:14.466Z,0.91
2022-12-05T19:05:42.685Z,0.87
2022-12-05T19:08:09.072Z,0.88
2022-12-05T19:10:36.007Z,0.97
2022-12-05T19:13:02.414Z,0.92
2022-12-05T19:15:28.819Z,0.80
2022-12-05T19:17:55.241Z,0.84
2022-12-05T19:20:21.737Z,0.86
2022-12-05T19:22:48.129Z,0.76
2022-12-05T19:25:14.514Z,0.80
2022-12-05T19:27:41.007Z,0.72
2022-12-05T19:30:10.087Z,0.74
2022-12-05T19:32:40.374Z,0.78
2022-12-05T19:35:07.609Z,0.85
2022-12-05T19:37:34.467Z,0.92
2022-12-05T19:40:01.112Z,0.82
2022-12-05T19:42:29.488Z,0.58
2022-12-05T19:44:55.928Z,0.70
2022-12-05T19:47:22.534Z,0.64
2022-12-05T19:49:49.318Z,0.76
2022-12-05T19:52:18.020Z,0.91
2022-12-05T19:54:45.009Z,0.95
2022-12-05T19:57:11.781Z,1.07
2022-12-05T19:59:38.239Z,1.04
2022-12-05T20:02:04.704Z,1.01
2022-12-05T20:04:31.202Z,1.04
2022-12-05T20:06:57.626Z,1.02
2022-12-05T20:09:24.085Z,1.08
2022-12-05T20:11:55.160Z,0.85
2022-12-05T20:14:23.407Z,0.73
2022-12-05T20:16:50.190Z,0.59
2022-12-05T20:19:16.705Z,0.75
2022-12-05T20:21:44.316Z,0.83
2022-12-05T20:24:10.832Z,0.82
2022-12-05T20:26:39.863Z,0.73
2022-12-05T20:29:06.781Z,0.82
2022-12-05T20:31:35.862Z,0.71
2022-12-05T20:34:02.705Z,0.66
2022-12-05T20:36:31.323Z,0.61
2022-12-05T20:39:00.068Z,0.72
2022-12-05T20:41:26.872Z,0.72
2022-12-05T20:43:55.486Z,0.64
2022-12-05T20:46:23.014Z,0.82
2022-12-05T20:48:50.617Z,1.00
2022-12-05T20:51:20.863Z,1.03
2022-12-05T20:53:47.383Z,1.10
2022-12-05T20:56:19.095Z,1.05
2022-12-05T20:58:47.693Z,1.00
2022-12-05T21:01:15.490Z,0.95
2022-12-05T21:03:43.875Z,1.08
2022-12-05T21:06:47.223Z,0.89
2022-12-05T21:09:26.227Z,0.89
2022-12-05T21:11:56.117Z,0.93
2022-12-05T21:14:23.144Z,1.03
2022-12-05T21:16:49.786Z,1.09
2022-12-05T21:19:16.201Z,1.04
2022-12-05T21:21:42.667Z,1.08
2022-12-05T21:24:09.680Z,0.94
2022-12-05T21:26:36.151Z,0.88
2022-12-05T21:29:03.901Z,0.98
2022-12-05T21:31:36.151Z,1.05
2022-12-05T21:34:04.160Z,1.03
2022-12-05T21:36:32.226Z,0.96
2022-12-05T21:38:59.166Z,0.96
2022-12-05T21:41:25.924Z,0.98
2022-12-05T21:43:55.489Z,0.98
2022-12-05T21:46:23.559Z,1.14
2022-12-05T21:48:50.008Z,1.17
2022-12-05T21:51:16.708Z,1.09
2022-12-05T21:53:43.155Z,1.09
2022-12-05T21:56:15.490Z,0.90
2022-12-05T21:58:42.735Z,1.06
2022-12-05T22:01:11.254Z,1.14
2022-12-05T22:03:38.341Z,1.07
2022-12-05T22:06:05.948Z,1.06
2022-12-05T22:08:32.787Z,1.08
2022-12-05T22:11:15.701Z,0.83
2022-12-05T22:13:42.552Z,0.91
2022-12-05T22:16:09.178Z,0.76
2022-12-05T22:18:35.870Z,0.75
2022-12-05T22:21:11.906Z,1.01
2022-12-05T22:23:38.732Z,1.11
2022-12-05T22:26:07.859Z,1.05
2022-12-05T22:28:34.986Z,0.76
2022-12-05T22:31:03.326Z,0.90
2022-12-05T22:33:29.800Z,0.84
2022-12-05T22:35:58.406Z,0.92
2022-12-05T22:38:28.676Z,1.01
2022-12-05T22:41:00.226Z,1.06
2022-12-05T22:43:27.712Z,1.00
2022-12-05T22:45:54.334Z,0.97
2022-12-05T22:48:21.120Z,1.00
2022-12-05T22:50:49.365Z,1.03
2022-12-05T22:53:18.123Z,1.11
2022-12-05T22:55:44.692Z,1.05
2022-12-05T22:58:11.331Z,1.08
2022-12-05T23:00:37.711Z,0.92
2022-12-05T23:03:04.770Z,1.20
2022-12-05T23:05:31.192Z,1.19
2022-12-05T23:07:57.668Z,1.12
2022-12-05T23:10:24.235Z,0.94
2022-12-05T23:12:50.716Z,1.05
2022-12-05T23:15:17.128Z,1.14
2022-12-05T23:17:43.777Z,1.09
2022-12-05T23:20:10.511Z,1.10
2022-12-05T23:22:36.912Z,1.03
2022-12-05T23:25:03.459Z,1.22
2022-12-05T23:27:29.842Z,1.15
2022-12-05T23:29:56.586Z,1.15
2022-12-05T23:32:23.202Z,1.18
2022-12-05T23:34:49.619Z,1.17
2022-12-05T23:37:16.060Z,1.16
2022-12-05T23:39:42.515Z,1.18
2022-12-05T23:42:14.928Z,1.14
2022-12-05T23:44:41.663Z,0.88
2022-12-05T23:47:08.100Z,1.13
2022-12-05T23:49:34.559Z,1.17
2022-12-05T23:52:00.939Z,0.96
2022-12-05T23:54:27.475Z,1.25
2022-12-05T23:56:53.896Z,1.25
2022-12-05T23:59:20.399Z,1.22
